Time;durP1;ratioP1;P1;durP2;ratioP2;P2;SDS_P1;SDS_P2;PMS_P1;PMS_P2;Temp;Humidity;BMP_temperature;BMP_pressure;BME280_temperature;BME280_humidity;BME280_pressure;Samples;Min_cycle;Max_cycle;Signal;HPM_P1;HPM_P2
2021/01/22 00:00:26;;;;;;;13.20;9.20;;;;;;;;;;5036279;28;20540;-73
2021/01/22 00:03:30;;;;;;;14.77;9.20;;;;;;;;;;5036841;28;21069;-72
2021/01/22 00:06:34;;;;;;;13.60;9.80;;;;;;;;;;5036896;28;20607;-72
2021/01/22 00:09:39;;;;;;;14.53;10.03;;;;;;;;;;5037189;28;20591;-73
2021/01/22 00:12:43;;;;;;;14.90;8.87;;;;;;;;;;5036929;28;20540;-73
2021/01/22 00:15:47;;;;;;;13.10;8.63;;;;;;;;;;5036525;28;20591;-72
2021/01/22 00:18:51;;;;;;;17.80;8.50;;;;;;;;;;5024614;28;20599;-73
2021/01/22 00:21:56;;;;;;;12.10;8.30;;;;;;;;;;5036457;28;20623;-72
2021/01/22 00:24:59;;;;;;;12.07;8.80;;;;;;;;;;5024490;28;20591;-73
2021/01/22 00:28:04;;;;;;;12.60;8.40;;;;;;;;;;5036661;28;20540;-72
2021/01/22 00:31:08;;;;;;;14.70;8.93;;;;;;;;;;5036250;28;20627;-72
2021/01/22 00:34:12;;;;;;;13.00;8.87;;;;;;;;;;5036468;28;20591;-72
2021/01/22 00:37:17;;;;;;;14.20;9.50;;;;;;;;;;5024061;28;20941;-72
2021/01/22 00:40:21;;;;;;;12.00;9.00;;;;;;;;;;5036296;28;20935;-73
2021/01/22 00:43:25;;;;;;;12.27;8.40;;;;;;;;;;5036368;28;20539;-72
2021/01/22 00:46:29;;;;;;;12.77;8.90;;;;;;;;;;5036428;28;20548;-73
2021/01/22 00:49:34;;;;;;;15.63;8.87;;;;;;;;;;5024116;28;20536;-73
2021/01/22 00:52:39;;;;;;;13.57;9.63;;;;;;;;;;5035851;28;20615;-72
2021/01/22 00:55:43;;;;;;;15.03;9.17;;;;;;;;;;5023694;28;20607;-72
2021/01/22 00:59:11;;;;;;;15.17;9.13;;;;;;;;;;5035253;28;20536;-72
2021/01/22 01:02:15;;;;;;;17.47;10.90;;;;;;;;;;5035833;28;20631;-72
2021/01/22 01:05:19;;;;;;;13.87;9.37;;;;;;;;;;5035975;28;20543;-72
2021/01/22 01:08:23;;;;;;;13.77;9.53;;;;;;;;;;5023980;28;20539;-72
2021/01/22 01:11:39;;;;;;;13.50;9.03;;;;;;;;;;5023438;28;20618;-72
2021/01/22 01:14:57;;;;;;;6.33;4.57;;;;;;;;;;5023270;28;20647;-72
2021/01/22 01:18:11;;;;;;;11.20;6.73;;;;;;;;;;5013643;28;20543;-72
2021/01/22 01:21:15;;;;;;;14.33;8.97;;;;;;;;;;5023167;28;20623;-72
2021/01/22 01:24:19;;;;;;;15.90;9.97;;;;;;;;;;5023424;28;21094;-73
2021/01/22 01:27:23;;;;;;;14.80;8.50;;;;;;;;;;5035508;28;21070;-72
2021/01/22 01:30:28;;;;;;;10.67;8.00;;;;;;;;;;5035462;28;20884;-72
2021/01/22 01:33:32;;;;;;;12.20;7.37;;;;;;;;;;5035485;28;20543;-72
2021/01/22 01:36:36;;;;;;;14.53;8.53;;;;;;;;;;5035685;28;20529;-72
2021/01/22 01:39:41;;;;;;;17.57;10.13;;;;;;;;;;5035084;28;20564;-73
2021/01/22 01:42:45;;;;;;;15.27;8.83;;;;;;;;;;5023320;28;20598;-73
2021/01/22 01:45:49;;;;;;;15.10;8.23;;;;;;;;;;5034917;28;20599;-72
2021/01/22 01:48:53;;;;;;;11.33;7.57;;;;;;;;;;5034760;28;20602;-72
2021/01/22 01:51:58;;;;;;;12.53;8.03;;;;;;;;;;5022985;28;20627;-72
2021/01/22 01:55:04;;;;;;;10.37;7.20;;;;;;;;;;5035059;28;20596;-72
2021/01/22 01:58:09;;;;;;;11.63;8.20;;;;;;;;;;5034938;28;20603;-72
2021/01/22 02:01:17;;;;;;;11.00;8.00;;;;;;;;;;5022304;28;20626;-72
2021/01/22 02:04:21;;;;;;;11.20;7.90;;;;;;;;;;5022644;28;20544;-73
2021/01/22 02:07:26;;;;;;;12.37;7.63;;;;;;;;;;5022939;28;20540;-72
2021/01/22 02:10:32;;;;;;;10.37;7.47;;;;;;;;;;5034540;28;20556;-72
2021/01/22 02:13:38;;;;;;;10.67;7.53;;;;;;;;;;5034696;28;21066;-72
2021/01/22 02:16:43;;;;;;;13.83;8.00;;;;;;;;;;5034771;28;20876;-72
2021/01/22 02:20:14;;;;;;;11.13;7.70;;;;;;;;;;5034790;28;20544;-72
2021/01/22 02:23:22;;;;;;;11.80;8.00;;;;;;;;;;5022559;28;20875;-72
2021/01/22 02:26:29;;;;;;;12.33;7.67;;;;;;;;;;5034151;28;20548;-72
2021/01/22 02:29:36;;;;;;;10.83;7.63;;;;;;;;;;5010922;28;20532;-72
2021/01/22 02:32:44;;;;;;;10.97;7.10;;;;;;;;;;5034222;28;20615;-72
2021/01/22 02:35:53;;;;;;;12.83;7.93;;;;;;;;;;5022083;28;20928;-72
2021/01/22 02:39:01;;;;;;;11.70;7.80;;;;;;;;;;5022119;28;20540;-72
2021/01/22 02:42:08;;;;;;;10.80;7.60;;;;;;;;;;5010598;28;20623;-72
2021/01/22 02:45:14;;;;;;;10.13;7.40;;;;;;;;;;5034100;28;20872;-72
2021/01/22 02:48:19;;;;;;;9.60;6.80;;;;;;;;;;5033961;28;20607;-72
2021/01/22 02:51:23;;;;;;;9.27;6.53;;;;;;;;;;5033793;28;20619;-72
2021/01/22 02:54:27;;;;;;;9.27;6.67;;;;;;;;;;5033559;28;20947;-72
2021/01/22 02:57:42;;;;;;;9.20;6.40;;;;;;;;;;5033109;28;20998;-72
2021/01/22 03:00:48;;;;;;;7.23;5.37;;;;;;;;;;5029497;28;20623;-72
2021/01/22 03:03:58;;;;;;;6.40;4.30;;;;;;;;;;5032896;28;20591;-72
2021/01/22 03:07:08;;;;;;;6.30;4.53;;;;;;;;;;5033729;28;20537;-72
2021/01/22 03:10:16;;;;;;;6.07;4.13;;;;;;;;;;5032631;28;21090;-72
2021/01/22 03:13:21;;;;;;;6.30;4.47;;;;;;;;;;5033374;28;20540;-72
2021/01/22 03:16:25;;;;;;;6.77;4.00;;;;;;;;;;5033287;28;20627;-72
2021/01/22 03:19:29;;;;;;;5.47;4.30;;;;;;;;;;5021476;28;20880;-72
2021/01/22 03:22:33;;;;;;;6.53;3.87;;;;;;;;;;5033203;28;20615;-72
2021/01/22 03:25:38;;;;;;;5.70;4.50;;;;;;;;;;5039126;28;20548;-72
2021/01/22 03:28:42;;;;;;;5.90;4.20;;;;;;;;;;5033662;28;20603;-72
2021/01/22 03:31:46;;;;;;;6.20;4.33;;;;;;;;;;5033448;28;20627;-72
2021/01/22 03:34:50;;;;;;;5.37;3.80;;;;;;;;;;5033581;28;20544;-73
2021/01/22 03:37:55;;;;;;;4.07;3.33;;;;;;;;;;5033304;28;20595;-73
2021/01/22 03:40:59;;;;;;;3.30;2.60;;;;;;;;;;5033204;28;21196;-72
2021/01/22 03:44:04;;;;;;;5.13;3.03;;;;;;;;;;5033280;28;21076;-72
2021/01/22 03:47:08;;;;;;;2.27;2.03;;;;;;;;;;5033128;28;20618;-73
2021/01/22 03:50:12;;;;;;;3.33;2.20;;;;;;;;;;5046565;23;20702;-71
2021/01/22 03:53:16;;;;;;;2.10;1.80;;;;;;;;;;5032324;28;20579;-70
2021/01/22 03:56:20;;;;;;;1.97;1.60;;;;;;;;;;5020964;28;20603;-70
2021/01/22 03:59:24;;;;;;;2.60;2.17;;;;;;;;;;5033123;28;20587;-70
2021/01/22 04:02:29;;;;;;;4.20;2.23;;;;;;;;;;5032756;28;20212;-70
2021/01/22 04:05:33;;;;;;;4.13;3.00;;;;;;;;;;5033059;28;20599;-70
2021/01/22 04:08:37;;;;;;;4.07;2.77;;;;;;;;;;5020475;28;20172;-70
2021/01/22 04:11:42;;;;;;;4.83;2.70;;;;;;;;;;5028521;28;20639;-70
2021/01/22 04:14:46;;;;;;;3.53;2.20;;;;;;;;;;5020578;28;20628;-70
2021/01/22 04:17:50;;;;;;;3.57;1.90;;;;;;;;;;5032744;28;20540;-70
2021/01/22 04:20:55;;;;;;;2.47;1.63;;;;;;;;;;5032146;28;20224;-70
2021/01/22 04:23:58;;;;;;;2.50;1.57;;;;;;;;;;5032627;28;20666;-70
2021/01/22 04:27:03;;;;;;;2.83;1.83;;;;;;;;;;5032214;28;20189;-70
2021/01/22 04:30:08;;;;;;;3.40;1.40;;;;;;;;;;5013265;28;20201;-70
2021/01/22 04:33:12;;;;;;;3.13;1.37;;;;;;;;;;5007352;28;20446;-70
2021/01/22 04:36:17;;;;;;;2.53;1.63;;;;;;;;;;5036433;28;20225;-70
2021/01/22 04:39:21;;;;;;;1.83;1.20;;;;;;;;;;5035958;28;20532;-70
2021/01/22 04:42:25;;;;;;;2.33;1.43;;;;;;;;;;5036551;28;20220;-70
2021/01/22 04:45:30;;;;;;;2.30;1.70;;;;;;;;;;5023886;28;20197;-70
2021/01/22 04:48:34;;;;;;;1.67;1.57;;;;;;;;;;5035162;28;20197;-70
2021/01/22 04:51:39;;;;;;;2.10;1.80;;;;;;;;;;5036201;28;20212;-70
2021/01/22 04:54:44;;;;;;;2.03;1.33;;;;;;;;;;5024174;28;20180;-70
2021/01/22 04:57:49;;;;;;;2.63;1.60;;;;;;;;;;5033937;28;20204;-70
2021/01/22 05:00:53;;;;;;;2.80;1.53;;;;;;;;;;5035535;28;20587;-70
2021/01/22 05:03:58;;;;;;;1.80;1.43;;;;;;;;;;5026951;28;20204;-70
2021/01/22 05:07:02;;;;;;;2.03;1.30;;;;;;;;;;5006088;28;20205;-70
2021/01/22 05:10:07;;;;;;;1.97;1.30;;;;;;;;;;5015871;28;20177;-70
2021/01/22 05:13:11;;;;;;;1.83;1.13;;;;;;;;;;5015865;28;20180;-70
2021/01/22 05:16:15;;;;;;;3.20;1.30;;;;;;;;;;5016124;28;20206;-70
2021/01/22 05:19:20;;;;;;;2.00;1.30;;;;;;;;;;5016249;28;20636;-70
2021/01/22 05:22:25;;;;;;;2.63;1.23;;;;;;;;;;5015841;28;20217;-70
2021/01/22 05:25:29;;;;;;;1.47;1.23;;;;;;;;;;5015840;28;20177;-70
2021/01/22 05:28:40;;;;;;;1.50;1.10;;;;;;;;;;5015762;28;20197;-70
2021/01/22 05:31:45;;;;;;;3.13;1.23;;;;;;;;;;5015646;28;20565;-70
2021/01/22 05:34:49;;;;;;;2.63;1.30;;;;;;;;;;5016202;28;20181;-70
2021/01/22 05:37:53;;;;;;;1.50;1.00;;;;;;;;;;5015586;28;20190;-70
2021/01/22 05:40:57;;;;;;;1.80;0.97;;;;;;;;;;5015228;28;20580;-70
2021/01/22 05:44:02;;;;;;;1.87;1.13;;;;;;;;;;5014050;28;20177;-70
2021/01/22 05:47:08;;;;;;;1.50;0.93;;;;;;;;;;5015552;28;20173;-70
2021/01/22 05:50:13;;;;;;;2.57;1.00;;;;;;;;;;5015267;28;20205;-70
2021/01/22 05:53:18;;;;;;;1.83;1.00;;;;;;;;;;5015368;28;20187;-70
2021/01/22 05:56:22;;;;;;;1.77;0.90;;;;;;;;;;5014323;28;20209;-70
2021/01/22 05:59:27;;;;;;;1.77;0.90;;;;;;;;;;5015239;28;20189;-70
2021/01/22 06:02:31;;;;;;;2.53;1.03;;;;;;;;;;5014144;28;20209;-69
2021/01/22 06:05:37;;;;;;;1.50;1.00;;;;;;;;;;5015319;28;20181;-70
2021/01/22 06:08:49;;;;;;;1.73;1.07;;;;;;;;;;5015370;28;20186;-70
2021/01/22 06:11:54;;;;;;;2.13;1.00;;;;;;;;;;5014559;28;20213;-70
2021/01/22 06:14:58;;;;;;;2.33;1.07;;;;;;;;;;5013951;28;20189;-70
2021/01/22 06:18:03;;;;;;;2.70;0.87;;;;;;;;;;5015466;28;20509;-70
2021/01/22 06:21:17;;;;;;;1.53;0.80;;;;;;;;;;5014958;28;20216;-70
2021/01/22 06:24:22;;;;;;;2.63;0.83;;;;;;;;;;5014936;28;20177;-70
2021/01/22 06:27:27;;;;;;;1.03;0.80;;;;;;;;;;5015002;28;20174;-70
2021/01/22 06:30:33;;;;;;;2.43;0.93;;;;;;;;;;5014025;28;20173;-70
2021/01/22 06:33:38;;;;;;;1.43;0.90;;;;;;;;;;5002674;28;20182;-70
2021/01/22 06:36:43;;;;;;;0.90;0.70;;;;;;;;;;5014571;28;20209;-70
2021/01/22 06:39:48;;;;;;;2.93;0.80;;;;;;;;;;5002477;28;20181;-70
2021/01/22 06:42:53;;;;;;;1.33;0.80;;;;;;;;;;5015040;28;20181;-70
2021/01/22 06:46:01;;;;;;;1.40;0.80;;;;;;;;;;5014545;28;20182;-70
2021/01/22 06:49:06;;;;;;;3.60;1.60;;;;;;;;;;5014440;28;20197;-70
2021/01/22 06:52:12;;;;;;;1.70;1.60;;;;;;;;;;5014025;28;20217;-70
2021/01/22 06:55:16;;;;;;;2.60;1.50;;;;;;;;;;5014068;28;20177;-70
2021/01/22 06:58:30;;;;;;;2.33;0.90;;;;;;;;;;5013842;28;20193;-70
2021/01/22 07:01:34;;;;;;;3.17;0.97;;;;;;;;;;5013817;28;20225;-71
2021/01/22 07:04:40;;;;;;;1.23;1.00;;;;;;;;;;5014111;28;20534;-70
2021/01/22 07:07:47;;;;;;;3.63;2.00;;;;;;;;;;5013782;28;20181;-70
2021/01/22 07:11:02;;;;;;;1.50;0.63;;;;;;;;;;5026321;28;20224;-70
2021/01/22 07:14:35;;;;;;;1.23;0.80;;;;;;;;;;5013948;28;20190;-70
2021/01/22 07:17:39;;;;;;;1.80;0.67;;;;;;;;;;5032611;28;20213;-70
2021/01/22 07:20:43;;;;;;;1.10;0.80;;;;;;;;;;5032763;28;20224;-70
2021/01/22 07:23:47;;;;;;;1.13;0.63;;;;;;;;;;5033643;28;20208;-70
2021/01/22 07:26:53;;;;;;;0.90;0.60;;;;;;;;;;5033125;28;20200;-70
2021/01/22 07:30:14;;;;;;;2.93;0.87;;;;;;;;;;5033374;28;20208;-70
2021/01/22 07:33:30;;;;;;;1.50;0.80;;;;;;;;;;5001578;28;20181;-70
2021/01/22 07:36:34;;;;;;;0.93;0.70;;;;;;;;;;5001632;28;20209;-70
2021/01/22 07:39:39;;;;;;;0.83;0.70;;;;;;;;;;5023112;28;20663;-70
2021/01/22 07:42:45;;;;;;;1.63;0.80;;;;;;;;;;5021287;28;20620;-70
2021/01/22 07:45:49;;;;;;;2.60;0.77;;;;;;;;;;5033299;28;20523;-70
2021/01/22 07:49:06;;;;;;;2.93;0.90;;;;;;;;;;5033037;28;20173;-70
2021/01/22 07:52:10;;;;;;;0.90;0.77;;;;;;;;;;5033453;28;20216;-70
2021/01/22 07:55:17;;;;;;;0.73;0.57;;;;;;;;;;5021376;28;20181;-70
2021/01/22 07:58:21;;;;;;;0.80;0.70;;;;;;;;;;5033132;28;20213;-70
2021/01/22 08:01:25;;;;;;;2.20;0.80;;;;;;;;;;5033121;28;20212;-70
2021/01/22 08:04:33;;;;;;;0.77;0.60;;;;;;;;;;5033144;28;20180;-70
2021/01/22 08:07:38;;;;;;;1.13;0.93;;;;;;;;;;5034927;28;20196;-70
2021/01/22 08:10:43;;;;;;;1.70;0.80;;;;;;;;;;5037207;28;20212;-70
2021/01/22 08:13:47;;;;;;;3.80;0.80;;;;;;;;;;5025073;28;20177;-70
2021/01/22 08:16:52;;;;;;;3.30;1.00;;;;;;;;;;5036699;28;20204;-70
2021/01/22 08:19:57;;;;;;;1.10;0.70;;;;;;;;;;5037153;28;20185;-70
2021/01/22 08:23:02;;;;;;;0.80;0.70;;;;;;;;;;5036561;28;20621;-70
2021/01/22 08:26:06;;;;;;;0.70;0.50;;;;;;;;;;5036590;28;20185;-70
2021/01/22 08:29:11;;;;;;;1.67;0.70;;;;;;;;;;5020248;28;20185;-70
2021/01/22 08:32:17;;;;;;;0.90;0.50;;;;;;;;;;5036594;28;20220;-70
2021/01/22 08:35:23;;;;;;;0.90;0.80;;;;;;;;;;5036835;28;20181;-70
2021/01/22 08:38:27;;;;;;;0.73;0.60;;;;;;;;;;5035927;28;20209;-70
2021/01/22 08:41:31;;;;;;;1.20;0.70;;;;;;;;;;5024388;28;20208;-69
2021/01/22 08:44:50;;;;;;;1.83;0.80;;;;;;;;;;5036187;28;20196;-69
2021/01/22 08:47:54;;;;;;;1.63;0.90;;;;;;;;;;5036461;28;20532;-70
2021/01/22 08:51:02;;;;;;;1.17;0.70;;;;;;;;;;5023707;28;20220;-70
2021/01/22 08:54:07;;;;;;;2.17;0.80;;;;;;;;;;5036032;28;20656;-70
2021/01/22 08:57:12;;;;;;;1.63;0.97;;;;;;;;;;5035730;28;20687;-70
2021/01/22 09:00:24;;;;;;;1.50;0.73;;;;;;;;;;5023689;28;20647;-70
2021/01/22 09:03:31;;;;;;;0.80;0.70;;;;;;;;;;5024001;28;20181;-69
2021/01/22 09:06:49;;;;;;;1.53;0.60;;;;;;;;;;5023474;28;20181;-70
2021/01/22 09:09:53;;;;;;;2.50;0.70;;;;;;;;;;5035696;28;20189;-70
2021/01/22 09:13:14;;;;;;;1.63;0.80;;;;;;;;;;5034970;28;20200;-70
2021/01/22 09:16:18;;;;;;;1.97;0.80;;;;;;;;;;5015816;28;20181;-70
2021/01/22 09:19:23;;;;;;;2.07;1.10;;;;;;;;;;5002801;28;20186;-70
2021/01/22 09:22:31;;;;;;;2.23;0.93;;;;;;;;;;5015794;28;20209;-70
2021/01/22 09:25:35;;;;;;;3.20;1.07;;;;;;;;;;5003786;28;20178;-70
2021/01/22 09:28:39;;;;;;;2.03;1.13;;;;;;;;;;5015792;28;20178;-70
2021/01/22 09:31:44;;;;;;;1.50;1.03;;;;;;;;;;5015868;28;20603;-70
2021/01/22 09:34:48;;;;;;;1.37;0.90;;;;;;;;;;5015818;28;20178;-70
2021/01/22 09:37:52;;;;;;;1.33;0.80;;;;;;;;;;5003799;28;20209;-70
2021/01/22 09:40:56;;;;;;;1.77;0.87;;;;;;;;;;5015508;28;20213;-70
2021/01/22 09:44:00;;;;;;;1.10;0.87;;;;;;;;;;5015585;28;20193;-70
2021/01/22 09:47:05;;;;;;;0.80;0.70;;;;;;;;;;5015391;28;20178;-70
2021/01/22 09:50:11;;;;;;;1.87;0.80;;;;;;;;;;5015187;28;20209;-70
2021/01/22 09:53:16;;;;;;;1.57;0.87;;;;;;;;;;5015918;28;20181;-70
2021/01/22 09:56:20;;;;;;;0.77;0.63;;;;;;;;;;5015127;28;20182;-70
2021/01/22 09:59:24;;;;;;;1.10;0.90;;;;;;;;;;5015329;28;20633;-70
2021/01/22 10:02:28;;;;;;;3.50;1.03;;;;;;;;;;5015107;28;20213;-70
2021/01/22 10:05:32;;;;;;;1.23;0.83;;;;;;;;;;5003331;28;20193;-70
2021/01/22 10:08:37;;;;;;;1.10;0.70;;;;;;;;;;5015187;28;20524;-70
2021/01/22 10:11:41;;;;;;;2.67;1.10;;;;;;;;;;5014972;28;20228;-70
2021/01/22 10:14:46;;;;;;;1.77;1.17;;;;;;;;;;5015368;28;20628;-70
2021/01/22 10:17:50;;;;;;;2.30;1.17;;;;;;;;;;5014581;28;20675;-70
2021/01/22 10:20:54;;;;;;;3.63;1.30;;;;;;;;;;5014685;28;20217;-71
2021/01/22 10:23:59;;;;;;;1.93;0.93;;;;;;;;;;5003381;28;20555;-70
2021/01/22 10:27:03;;;;;;;1.77;0.87;;;;;;;;;;5013965;28;20185;-70
2021/01/22 10:30:08;;;;;;;2.57;1.00;;;;;;;;;;5014868;28;20252;-70
2021/01/22 10:33:12;;;;;;;3.13;0.80;;;;;;;;;;5014743;28;20197;-70
2021/01/22 10:36:16;;;;;;;3.83;1.10;;;;;;;;;;5014492;28;20205;-70
2021/01/22 10:39:20;;;;;;;1.87;0.90;;;;;;;;;;5014375;28;20225;-70
2021/01/22 10:42:27;;;;;;;1.37;0.97;;;;;;;;;;5002407;28;20221;-70
2021/01/22 10:45:32;;;;;;;3.23;1.03;;;;;;;;;;5013751;28;20185;-70
2021/01/22 10:48:37;;;;;;;3.03;1.33;;;;;;;;;;5014435;28;20189;-70
2021/01/22 10:51:41;;;;;;;2.33;1.10;;;;;;;;;;5013994;28;20221;-70
2021/01/22 10:54:45;;;;;;;1.30;0.90;;;;;;;;;;5014152;28;20181;-70
2021/01/22 10:57:49;;;;;;;1.63;1.20;;;;;;;;;;5013994;28;20217;-70
2021/01/22 11:00:54;;;;;;;6.10;1.10;;;;;;;;;;5013724;28;20217;-70
2021/01/22 11:03:58;;;;;;;2.07;1.03;;;;;;;;;;5014278;28;20510;-71
2021/01/22 11:07:03;;;;;;;2.30;1.10;;;;;;;;;;5025862;28;20189;-70
2021/01/22 11:10:08;;;;;;;1.43;0.80;;;;;;;;;;5018064;28;20193;-70
2021/01/22 11:13:12;;;;;;;2.37;0.90;;;;;;;;;;5013714;28;20178;-70
2021/01/22 11:16:20;;;;;;;1.17;0.90;;;;;;;;;;5013604;28;20197;-70
2021/01/22 11:19:25;;;;;;;2.07;0.80;;;;;;;;;;5013826;28;20205;-70
2021/01/22 11:22:31;;;;;;;1.67;0.70;;;;;;;;;;5013971;28;20217;-70
2021/01/22 11:25:35;;;;;;;1.77;0.73;;;;;;;;;;5013909;28;20510;-70
2021/01/22 11:28:40;;;;;;;2.83;0.90;;;;;;;;;;5013773;28;20165;-70
2021/01/22 11:31:44;;;;;;;2.50;0.90;;;;;;;;;;5013361;28;20213;-70
2021/01/22 11:34:48;;;;;;;1.43;1.13;;;;;;;;;;5013648;28;20186;-70
2021/01/22 11:37:53;;;;;;;3.57;0.80;;;;;;;;;;5012543;28;20213;-70
2021/01/22 11:40:57;;;;;;;2.27;0.90;;;;;;;;;;5012566;28;20557;-70
2021/01/22 11:44:01;;;;;;;0.83;0.80;;;;;;;;;;5001503;28;20628;-70
2021/01/22 11:47:06;;;;;;;6.97;1.03;;;;;;;;;;5013598;28;20181;-70
2021/01/22 11:50:11;;;;;;;2.27;0.90;;;;;;;;;;5001446;28;20201;-70
2021/01/22 11:53:15;;;;;;;1.57;0.83;;;;;;;;;;5013183;28;20629;-70
2021/01/22 11:56:19;;;;;;;1.00;0.80;;;;;;;;;;5013711;28;20186;-71
2021/01/22 11:59:23;;;;;;;1.43;0.80;;;;;;;;;;5013865;28;20216;-70
2021/01/22 12:02:27;;;;;;;1.30;0.80;;;;;;;;;;5013257;28;20217;-70
2021/01/22 12:05:31;;;;;;;1.43;0.80;;;;;;;;;;5013517;28;20177;-70
2021/01/22 12:08:36;;;;;;;2.53;1.30;;;;;;;;;;5013747;28;20502;-70
2021/01/22 12:11:40;;;;;;;2.50;1.10;;;;;;;;;;5013717;28;20209;-70
2021/01/22 12:14:44;;;;;;;1.27;1.13;;;;;;;;;;5013129;28;20526;-70
2021/01/22 12:17:48;;;;;;;1.33;1.00;;;;;;;;;;5012954;28;20565;-70
2021/01/22 12:20:53;;;;;;;2.27;1.00;;;;;;;;;;5013155;28;20213;-70
2021/01/22 12:23:57;;;;;;;1.50;1.10;;;;;;;;;;5013062;28;20177;-70
2021/01/22 12:27:01;;;;;;;2.43;1.40;;;;;;;;;;5013289;28;20621;-70
2021/01/22 12:30:06;;;;;;;3.83;1.33;;;;;;;;;;5012439;28;20649;-70
2021/01/22 12:33:10;;;;;;;1.93;1.30;;;;;;;;;;5013109;28;20514;-70
2021/01/22 12:36:15;;;;;;;1.40;1.13;;;;;;;;;;5013440;28;20182;-70
2021/01/22 12:39:19;;;;;;;2.73;1.40;;;;;;;;;;5013053;28;20210;-70
2021/01/22 12:42:23;;;;;;;6.57;1.10;;;;;;;;;;5012774;28;20572;-70
2021/01/22 12:45:27;;;;;;;3.10;1.00;;;;;;;;;;5012459;28;20230;-70
2021/01/22 12:48:32;;;;;;;3.67;1.30;;;;;;;;;;5000915;28;20174;-71
2021/01/22 12:51:36;;;;;;;5.43;1.30;;;;;;;;;;5000941;28;20213;-70
2021/01/22 12:54:40;;;;;;;1.30;0.80;;;;;;;;;;5016055;28;20193;-70
2021/01/22 12:57:44;;;;;;;2.43;1.13;;;;;;;;;;5016036;28;20193;-70
2021/01/22 13:00:48;;;;;;;1.27;0.80;;;;;;;;;;5015700;28;20217;-70
2021/01/22 13:03:53;;;;;;;4.10;0.87;;;;;;;;;;5004647;28;20185;-70
2021/01/22 13:06:58;;;;;;;1.13;0.90;;;;;;;;;;5016229;28;20190;-70
2021/01/22 13:10:03;;;;;;;1.60;1.17;;;;;;;;;;5016188;28;20197;-70
2021/01/22 13:13:07;;;;;;;2.37;1.37;;;;;;;;;;5015886;28;20197;-70
2021/01/22 13:16:11;;;;;;;2.70;1.83;;;;;;;;;;5016236;28;20189;-70
2021/01/22 13:19:18;;;;;;;3.10;1.80;;;;;;;;;;5015729;28;20214;-70
2021/01/22 13:22:22;;;;;;;1.67;1.40;;;;;;;;;;5015637;28;20213;-70
2021/01/22 13:25:26;;;;;;;2.77;1.10;;;;;;;;;;5015858;28;20636;-70
2021/01/22 13:28:30;;;;;;;2.07;1.00;;;;;;;;;;5058857;22;20232;-72
2021/01/22 13:31:34;;;;;;;1.47;1.07;;;;;;;;;;5055345;28;20211;-72
2021/01/22 13:34:38;;;;;;;0.73;0.60;;;;;;;;;;5055089;28;20551;-72
2021/01/22 13:37:42;;;;;;;2.37;1.10;;;;;;;;;;5055148;28;20203;-72
2021/01/22 13:40:47;;;;;;;0.80;0.70;;;;;;;;;;5055244;28;20212;-72
2021/01/22 13:43:51;;;;;;;0.83;0.73;;;;;;;;;;5055220;28;20204;-73
2021/01/22 13:46:55;;;;;;;1.57;0.80;;;;;;;;;;5055408;28;20203;-72
2021/01/22 13:49:59;;;;;;;2.03;0.90;;;;;;;;;;5042720;28;20181;-72
2021/01/22 13:53:04;;;;;;;2.23;0.70;;;;;;;;;;5042973;28;20184;-72
2021/01/22 13:56:09;;;;;;;2.10;1.00;;;;;;;;;;5055060;28;20176;-72
2021/01/22 13:59:13;;;;;;;3.70;1.07;;;;;;;;;;5055169;28;20208;-72
2021/01/22 14:02:18;;;;;;;3.03;1.07;;;;;;;;;;5042328;28;20215;-72
2021/01/22 14:05:22;;;;;;;2.50;1.30;;;;;;;;;;5042042;28;20183;-72
2021/01/22 14:08:27;;;;;;;6.23;4.27;;;;;;;;;;5055169;28;20172;-72
2021/01/22 14:11:32;;;;;;;8.47;5.23;;;;;;;;;;5042359;28;20559;-72
2021/01/22 14:14:36;;;;;;;5.17;3.63;;;;;;;;;;5042742;28;20176;-72
2021/01/22 14:17:40;;;;;;;4.13;3.07;;;;;;;;;;5042232;28;20634;-72
2021/01/22 14:20:44;;;;;;;6.53;2.73;;;;;;;;;;5054799;28;20207;-73
2021/01/22 14:23:48;;;;;;;6.50;2.60;;;;;;;;;;5054924;28;20180;-72
2021/01/22 14:26:53;;;;;;;2.57;1.90;;;;;;;;;;5042230;28;20219;-72
2021/01/22 14:29:58;;;;;;;3.23;2.60;;;;;;;;;;5054751;28;20176;-72
2021/01/22 14:33:02;;;;;;;3.70;2.73;;;;;;;;;;5042468;28;20180;-72
2021/01/22 14:36:07;;;;;;;3.33;2.23;;;;;;;;;;5041832;28;20191;-72
2021/01/22 14:39:11;;;;;;;7.90;4.57;;;;;;;;;;5042033;28;20203;-73
2021/01/22 14:42:15;;;;;;;6.93;4.07;;;;;;;;;;5053853;28;20698;-73
2021/01/22 14:45:20;;;;;;;7.70;5.00;;;;;;;;;;5054053;28;20176;-73
2021/01/22 14:48:24;;;;;;;9.07;5.00;;;;;;;;;;5054314;28;20191;-73
2021/01/22 14:51:28;;;;;;;6.17;4.20;;;;;;;;;;5053871;28;20215;-73
2021/01/22 14:54:32;;;;;;;6.30;4.30;;;;;;;;;;5042048;28;20184;-73
2021/01/22 14:57:37;;;;;;;5.87;3.50;;;;;;;;;;5054185;28;20176;-73
2021/01/22 15:00:41;;;;;;;5.33;3.37;;;;;;;;;;5041416;28;20607;-73
2021/01/22 15:03:45;;;;;;;8.07;3.80;;;;;;;;;;5030703;28;20180;-73
2021/01/22 15:06:49;;;;;;;4.30;3.00;;;;;;;;;;5053738;28;20180;-73
2021/01/22 15:09:53;;;;;;;6.40;2.90;;;;;;;;;;5041272;28;20176;-73
2021/01/22 15:12:57;;;;;;;3.33;2.50;;;;;;;;;;5041706;28;20180;-73
2021/01/22 15:16:02;;;;;;;3.20;2.50;;;;;;;;;;5052978;28;20184;-73
2021/01/22 15:19:06;;;;;;;3.77;2.70;;;;;;;;;;5053511;28;20211;-73
2021/01/22 15:22:10;;;;;;;2.87;1.80;;;;;;;;;;5041501;28;20212;-73
2021/01/22 15:25:14;;;;;;;3.10;2.17;;;;;;;;;;5053442;28;20531;-73
2021/01/22 15:28:19;;;;;;;2.47;1.70;;;;;;;;;;5053126;28;20199;-74
2021/01/22 15:31:23;;;;;;;3.87;2.33;;;;;;;;;;5053290;28;20215;-73
2021/01/22 15:34:27;;;;;;;8.07;3.50;;;;;;;;;;5040937;28;20560;-73
2021/01/22 15:37:34;;;;;;;7.00;3.40;;;;;;;;;;5041029;28;20176;-73
2021/01/22 15:40:38;;;;;;;4.80;3.20;;;;;;;;;;5040522;28;20227;-74
2021/01/22 15:43:42;;;;;;;5.40;2.80;;;;;;;;;;5052930;28;20204;-73
2021/01/22 15:46:47;;;;;;;7.37;4.00;;;;;;;;;;5040934;28;20532;-73
2021/01/22 15:49:51;;;;;;;7.63;2.90;;;;;;;;;;5053190;28;20188;-74
2021/01/22 15:52:55;;;;;;;6.07;2.47;;;;;;;;;;5041099;28;20204;-73
2021/01/22 15:55:59;;;;;;;5.00;2.60;;;;;;;;;;5041102;28;20180;-74
2021/01/22 15:59:03;;;;;;;2.63;1.77;;;;;;;;;;5052831;28;20594;-73
2021/01/22 16:02:08;;;;;;;4.37;2.17;;;;;;;;;;5053102;28;20211;-73
2021/01/22 16:05:12;;;;;;;3.50;2.23;;;;;;;;;;5053126;28;20200;-73
2021/01/22 16:08:16;;;;;;;12.00;5.67;;;;;;;;;;5052748;28;20204;-74
2021/01/22 16:11:21;;;;;;;8.53;3.70;;;;;;;;;;5053518;28;20675;-73
2021/01/22 16:14:25;;;;;;;10.37;4.80;;;;;;;;;;5041318;28;20180;-74
2021/01/22 16:17:29;;;;;;;9.33;4.17;;;;;;;;;;5052870;28;20180;-74
2021/01/22 16:20:34;;;;;;;2.13;1.87;;;;;;;;;;5052627;28;20200;-73
2021/01/22 16:23:38;;;;;;;3.13;1.60;;;;;;;;;;5053171;28;20638;-73
2021/01/22 16:26:43;;;;;;;5.90;2.50;;;;;;;;;;5040506;28;20199;-73
2021/01/22 16:29:47;;;;;;;3.93;2.70;;;;;;;;;;5044503;28;20172;-73
2021/01/22 16:32:51;;;;;;;4.00;3.10;;;;;;;;;;5056491;28;20623;-73
2021/01/22 16:35:56;;;;;;;9.70;5.50;;;;;;;;;;5056324;28;20185;-73
2021/01/22 16:39:01;;;;;;;6.83;4.77;;;;;;;;;;5044202;28;20531;-73
2021/01/22 16:42:05;;;;;;;8.50;4.80;;;;;;;;;;5056221;28;20212;-73
2021/01/22 16:45:10;;;;;;;10.30;5.00;;;;;;;;;;5056706;28;20516;-72
2021/01/22 16:48:14;;;;;;;5.43;3.50;;;;;;;;;;5044318;28;20623;-73
2021/01/22 16:51:18;;;;;;;4.87;3.10;;;;;;;;;;5056408;28;20212;-73
2021/01/22 16:54:22;;;;;;;36.07;20.53;;;;;;;;;;5056007;28;20172;-72
2021/01/22 16:57:27;;;;;;;22.00;12.63;;;;;;;;;;5055904;28;20524;-73
2021/01/22 17:00:31;;;;;;;10.50;5.57;;;;;;;;;;5055953;28;20219;-73
2021/01/22 17:03:35;;;;;;;7.20;5.20;;;;;;;;;;5056206;28;20192;-73
2021/01/22 17:06:40;;;;;;;6.57;2.90;;;;;;;;;;5043597;28;20535;-73
2021/01/22 17:09:47;;;;;;;6.17;3.67;;;;;;;;;;5043687;28;20180;-73
2021/01/22 17:12:52;;;;;;;10.30;6.20;;;;;;;;;;5024183;28;20210;-72
2021/01/22 17:15:56;;;;;;;12.97;7.87;;;;;;;;;;5035903;28;20177;-73
2021/01/22 17:19:00;;;;;;;8.23;4.10;;;;;;;;;;5036694;28;20185;-72
2021/01/22 17:22:05;;;;;;;6.03;3.83;;;;;;;;;;5055360;28;20212;-72
2021/01/22 17:25:10;;;;;;;5.83;4.50;;;;;;;;;;5055742;28;20181;-72
2021/01/22 17:28:14;;;;;;;8.27;4.43;;;;;;;;;;5055572;28;20207;-73
2021/01/22 17:31:19;;;;;;;6.47;4.83;;;;;;;;;;5055526;28;20204;-72
2021/01/22 17:34:23;;;;;;;8.43;5.27;;;;;;;;;;5043531;28;20181;-72
2021/01/22 17:37:29;;;;;;;8.23;3.63;;;;;;;;;;5043230;28;20184;-72
2021/01/22 17:40:33;;;;;;;6.60;4.30;;;;;;;;;;5041912;28;20207;-72
2021/01/22 17:43:38;;;;;;;9.87;4.00;;;;;;;;;;5043392;28;20196;-72
2021/01/22 17:46:41;;;;;;;11.27;5.87;;;;;;;;;;5055151;28;20184;-72
2021/01/22 17:49:46;;;;;;;14.30;7.30;;;;;;;;;;5042688;28;20531;-72
2021/01/22 17:52:50;;;;;;;9.67;6.77;;;;;;;;;;5055164;28;20655;-72
2021/01/22 17:55:54;;;;;;;8.80;6.53;;;;;;;;;;5055224;28;20180;-72
2021/01/22 17:58:58;;;;;;;9.00;6.00;;;;;;;;;;5042928;28;20176;-72
2021/01/22 18:02:03;;;;;;;9.70;5.93;;;;;;;;;;5055026;28;20208;-73
2021/01/22 18:05:08;;;;;;;13.73;7.53;;;;;;;;;;5054692;28;20180;-72
2021/01/22 18:08:13;;;;;;;11.33;7.17;;;;;;;;;;5054903;28;20184;-72
2021/01/22 18:11:17;;;;;;;10.13;5.83;;;;;;;;;;5055166;28;20212;-72
2021/01/22 18:14:22;;;;;;;11.63;6.43;;;;;;;;;;5042564;28;20184;-72
2021/01/22 18:17:26;;;;;;;9.93;7.33;;;;;;;;;;5054515;28;20524;-72
2021/01/22 18:20:31;;;;;;;13.03;8.30;;;;;;;;;;5054492;28;20563;-72
2021/01/22 18:23:35;;;;;;;8.13;6.37;;;;;;;;;;5042317;28;20548;-72
2021/01/22 18:26:39;;;;;;;10.27;6.40;;;;;;;;;;5054310;28;20192;-72